sensor_id;sensor_type;location;lat;lon;timestamp;pressure;altitude;pressure_sealevel;temperature;humidity
57628;BME280;43451;49.060;10.616;2023-03-25T00:01:37;96085.59;;;6.92;100.00
57628;BME280;43451;49.060;10.616;2023-03-25T00:04:02;96082.88;;;6.89;100.00
57628;BME280;43451;49.060;10.616;2023-03-25T00:06:28;96085.19;;;6.94;100.00
57628;BME280;43451;49.060;10.616;2023-03-25T00:08:54;96081.34;;;6.95;100.00
57628;BME280;43451;49.060;10.616;2023-03-25T00:11:20;96092.50;;;6.93;100.00
57628;BME280;43451;49.060;10.616;2023-03-25T00:13:45;96082.88;;;6.96;100.00
57628;BME280;43451;49.060;10.616;2023-03-25T00:16:12;96088.28;;;7.03;100.00
57628;BME280;43451;49.060;10.616;2023-03-25T00:18:37;96092.97;;;7.31;100.00
57628;BME280;43451;49.060;10.616;2023-03-25T00:21:04;96107.22;;;7.35;100.00
57628;BME280;43451;49.060;10.616;2023-03-25T00:23:31;96084.41;;;7.01;100.00
57628;BME280;43451;49.060;10.616;2023-03-25T00:25:57;96113.00;;;7.12;100.00
57628;BME280;43451;49.060;10.616;2023-03-25T00:28:26;96109.16;;;7.17;100.00
57628;BME280;43451;49.060;10.616;2023-03-25T00:30:52;96110.34;;;7.30;100.00
57628;BME280;43451;49.060;10.616;2023-03-25T00:33:18;96111.47;;;7.26;100.00
57628;BME280;43451;49.060;10.616;2023-03-25T00:35:43;96113.81;;;7.34;100.00
57628;BME280;43451;49.060;10.616;2023-03-25T00:38:09;96108.38;;;7.06;100.00
57628;BME280;43451;49.060;10.616;2023-03-25T00:40:35;96102.19;;;7.02;100.00
57628;BME280;43451;49.060;10.616;2023-03-25T00:43:01;96092.94;;;7.06;100.00
57628;BME280;43451;49.060;10.616;2023-03-25T00:45:26;96091.38;;;7.05;100.00
57628;BME280;43451;49.060;10.616;2023-03-25T00:47:52;96093.31;;;7.05;100.00
57628;BME280;43451;49.060;10.616;2023-03-25T00:50:17;96099.13;;;7.14;100.00
57628;BME280;43451;49.060;10.616;2023-03-25T00:52:43;96100.66;;;7.22;100.00
57628;BME280;43451;49.060;10.616;2023-03-25T00:55:08;96095.66;;;7.28;100.00
57628;BME280;43451;49.060;10.616;2023-03-25T00:57:34;96091.41;;;7.41;100.00
57628;BME280;43451;49.060;10.616;2023-03-25T01:00:00;96092.19;;;7.34;100.00
57628;BME280;43451;49.060;10.616;2023-03-25T01:02:25;96089.88;;;7.43;100.00
57628;BME280;43451;49.060;10.616;2023-03-25T01:04:50;96086.00;;;7.62;100.00
57628;BME280;43451;49.060;10.616;2023-03-25T01:07:19;96084.84;;;7.60;100.00
57628;BME280;43451;49.060;10.616;2023-03-25T01:09:45;96083.31;;;7.55;100.00
57628;BME280;43451;49.060;10.616;2023-03-25T01:12:11;96082.16;;;7.46;100.00
57628;BME280;43451;49.060;10.616;2023-03-25T01:14:37;96075.97;;;7.56;100.00
57628;BME280;43451;49.060;10.616;2023-03-25T01:17:02;96075.56;;;7.61;100.00
57628;BME280;43451;49.060;10.616;2023-03-25T01:19:27;96079.81;;;7.69;100.00
57628;BME280;43451;49.060;10.616;2023-03-25T01:21:53;96081.00;;;7.64;100.00
57628;BME280;43451;49.060;10.616;2023-03-25T01:24:18;96071.69;;;7.76;100.00
57628;BME280;43451;49.060;10.616;2023-03-25T01:26:44;96063.25;;;7.49;100.00
57628;BME280;43451;49.060;10.616;2023-03-25T01:29:13;96069.03;;;7.48;100.00
57628;BME280;43451;49.060;10.616;2023-03-25T01:31:39;96066.72;;;7.28;100.00
57628;BME280;43451;49.060;10.616;2023-03-25T01:34:05;96058.59;;;7.28;100.00
57628;BME280;43451;49.060;10.616;2023-03-25T01:36:30;96051.28;;;7.25;100.00
57628;BME280;43451;49.060;10.616;2023-03-25T01:38:58;96057.84;;;7.31;100.00
57628;BME280;43451;49.060;10.616;2023-03-25T01:41:26;96045.88;;;7.18;100.00
57628;BME280;43451;49.060;10.616;2023-03-25T01:44:06;96047.41;;;7.33;100.00
57628;BME280;43451;49.060;10.616;2023-03-25T01:46:32;96038.53;;;7.36;100.00
57628;BME280;43451;49.060;10.616;2023-03-25T01:48:57;96043.16;;;7.29;100.00
57628;BME280;43451;49.060;10.616;2023-03-25T01:51:26;96049.34;;;7.22;100.00
57628;BME280;43451;49.060;10.616;2023-03-25T01:53:53;96045.09;;;7.17;100.00
57628;BME280;43451;49.060;10.616;2023-03-25T01:56:19;96045.88;;;7.25;100.00
57628;BME280;43451;49.060;10.616;2023-03-25T01:58:46;96048.19;;;7.12;100.00
57628;BME280;43451;49.060;10.616;2023-03-25T02:01:12;96050.50;;;7.28;100.00
57628;BME280;43451;49.060;10.616;2023-03-25T02:03:39;96044.31;;;7.13;100.00
57628;BME280;43451;49.060;10.616;2023-03-25T02:06:30;96032.75;;;7.06;100.00
57628;BME280;43451;49.060;10.616;2023-03-25T02:08:57;96031.97;;;7.09;100.00
57628;BME280;43451;49.060;10.616;2023-03-25T02:11:23;96032.75;;;7.09;100.00
57628;BME280;43451;49.060;10.616;2023-03-25T02:13:53;96017.31;;;7.06;100.00
57628;BME280;43451;49.060;10.616;2023-03-25T02:16:25;96012.69;;;7.00;100.00
57628;BME280;43451;49.060;10.616;2023-03-25T02:29:42;96029.63;;;6.79;100.00
57628;BME280;43451;49.060;10.616;2023-03-25T02:32:30;96031.19;;;6.80;100.00
57628;BME280;43451;49.060;10.616;2023-03-25T02:40:00;96026.53;;;6.91;100.00
57628;BME280;43451;49.060;10.616;2023-03-25T02:42:39;96029.28;;;7.02;100.00
57628;BME280;43451;49.060;10.616;2023-03-25T02:45:24;96031.19;;;6.94;100.00
57628;BME280;43451;49.060;10.616;2023-03-25T02:47:54;96029.66;;;6.86;100.00
57628;BME280;43451;49.060;10.616;2023-03-25T02:50:22;96039.69;;;6.96;100.00
57628;BME280;43451;49.060;10.616;2023-03-25T02:52:50;96035.81;;;6.97;100.00
57628;BME280;43451;49.060;10.616;2023-03-25T02:55:17;96034.28;;;7.03;100.00
57628;BME280;43451;49.060;10.616;2023-03-25T02:57:44;96031.97;;;7.09;100.00
57628;BME280;43451;49.060;10.616;2023-03-25T03:00:10;96033.50;;;6.95;100.00
57628;BME280;43451;49.060;10.616;2023-03-25T03:02:50;96024.25;;;7.04;100.00
57628;BME280;43451;49.060;10.616;2023-03-25T03:05:24;96024.63;;;7.16;100.00
57628;BME280;43451;49.060;10.616;2023-03-25T03:07:52;96014.63;;;7.17;100.00
57628;BME280;43451;49.060;10.616;2023-03-25T03:18:22;96017.31;;;7.06;100.00
57628;BME280;43451;49.060;10.616;2023-03-25T03:23:59;96021.91;;;6.84;100.00
57628;BME280;43451;49.060;10.616;2023-03-25T03:26:31;96012.69;;;6.85;100.00
57628;BME280;43451;49.060;10.616;2023-03-25T03:29:02;96020.38;;;6.97;100.00
57628;BME280;43451;49.060;10.616;2023-03-25T03:34:05;96017.31;;;6.88;100.00
57628;BME280;43451;49.060;10.616;2023-03-25T03:36:37;96018.09;;;6.85;100.00
57628;BME280;43451;49.060;10.616;2023-03-25T03:39:10;96009.59;;;6.76;100.00
57628;BME280;43451;49.060;10.616;2023-03-25T03:41:38;96010.75;;;6.86;100.00
57628;BME280;43451;49.060;10.616;2023-03-25T03:44:07;96022.72;;;6.99;100.00
57628;BME280;43451;49.060;10.616;2023-03-25T03:46:50;96016.13;;;7.04;100.00
57628;BME280;43451;49.060;10.616;2023-03-25T03:49:19;96020.78;;;7.00;100.00
57628;BME280;43451;49.060;10.616;2023-03-25T03:51:58;96030.03;;;6.91;100.00
57628;BME280;43451;49.060;10.616;2023-03-25T03:54:28;96041.97;;;6.80;100.00
57628;BME280;43451;49.060;10.616;2023-03-25T03:57:02;96040.03;;;6.80;100.00
57628;BME280;43451;49.060;10.616;2023-03-25T03:59:36;96050.44;;;6.71;100.00
57628;BME280;43451;49.060;10.616;2023-03-25T04:02:03;96052.31;;;6.56;100.00
57628;BME280;43451;49.060;10.616;2023-03-25T04:04:31;96061.56;;;6.59;100.00
57628;BME280;43451;49.060;10.616;2023-03-25T04:09:43;96078.75;;;6.18;100.00
57628;BME280;43451;49.060;10.616;2023-03-25T04:12:19;96085.63;;;6.01;100.00
57628;BME280;43451;49.060;10.616;2023-03-25T04:14:46;96086.75;;;5.97;100.00
57628;BME280;43451;49.060;10.616;2023-03-25T04:17:11;96097.44;;;5.86;100.00
57628;BME280;43451;49.060;10.616;2023-03-25T04:19:37;96096.31;;;5.87;100.00
57628;BME280;43451;49.060;10.616;2023-03-25T04:22:03;96093.59;;;5.87;100.00
57628;BME280;43451;49.060;10.616;2023-03-25T04:24:28;96108.50;;;5.74;100.00
57628;BME280;43451;49.060;10.616;2023-03-25T04:26:57;96083.78;;;5.61;100.00
57628;BME280;43451;49.060;10.616;2023-03-25T04:29:27;96062.22;;;5.57;100.00
57628;BME280;43451;49.060;10.616;2023-03-25T04:31:52;96067.59;;;5.57;100.00
57628;BME280;43451;49.060;10.616;2023-03-25T04:34:20;96080.69;;;5.55;100.00
57628;BME280;43451;49.060;10.616;2023-03-25T04:36:46;96088.69;;;5.48;100.00
57628;BME280;43451;49.060;10.616;2023-03-25T04:39:14;96101.78;;;5.46;100.00
57628;BME280;43451;49.060;10.616;2023-03-25T04:41:42;96095.66;;;5.49;100.00
57628;BME280;43451;49.060;10.616;2023-03-25T04:44:08;96103.00;;;5.56;100.00
57628;BME280;43451;49.060;10.616;2023-03-25T04:46:33;96096.66;;;5.82;100.00
57628;BME280;43451;49.060;10.616;2023-03-25T04:49:01;96081.94;;;5.69;100.00
57628;BME280;43451;49.060;10.616;2023-03-25T04:51:27;96087.00;;;5.77;100.00
57628;BME280;43451;49.060;10.616;2023-03-25T04:53:54;96093.34;;;5.51;100.00
57628;BME280;43451;49.060;10.616;2023-03-25T04:56:19;96091.44;;;5.52;100.00
57628;BME280;43451;49.060;10.616;2023-03-25T04:58:45;96080.69;;;5.55;100.00
57628;BME280;43451;49.060;10.616;2023-03-25T05:01:18;96082.31;;;5.71;100.00
57628;BME280;43451;49.060;10.616;2023-03-25T05:03:44;96074.34;;;5.89;100.00
57628;BME280;43451;49.060;10.616;2023-03-25T05:06:09;96078.25;;;5.95;100.00
57628;BME280;43451;49.060;10.616;2023-03-25T05:08:35;96078.69;;;6.00;100.00
57628;BME280;43451;49.060;10.616;2023-03-25T05:11:00;96078.75;;;6.18;100.00
57628;BME280;43451;49.060;10.616;2023-03-25T05:13:27;96083.00;;;6.16;100.00
57628;BME280;43451;49.060;10.616;2023-03-25T05:15:52;96080.31;;;6.19;100.00
57628;BME280;43451;49.060;10.616;2023-03-25T05:18:17;96088.75;;;6.14;100.00
57628;BME280;43451;49.060;10.616;2023-03-25T05:20:44;96088.78;;;6.18;100.00
57628;BME280;43451;49.060;10.616;2023-03-25T05:23:11;96094.91;;;6.08;100.00
57628;BME280;43451;49.060;10.616;2023-03-25T05:25:40;96098.81;;;6.17;100.00
57628;BME280;43451;49.060;10.616;2023-03-25T05:28:07;96101.47;;;6.14;100.00
57628;BME280;43451;49.060;10.616;2023-03-25T05:30:37;96102.63;;;6.09;100.00
57628;BME280;43451;49.060;10.616;2023-03-25T05:33:09;96100.69;;;6.10;100.00
57628;BME280;43451;49.060;10.616;2023-03-25T05:35:38;96100.28;;;6.08;100.00
57628;BME280;43451;49.060;10.616;2023-03-25T05:38:04;96092.97;;;6.12;100.00
57628;BME280;43451;49.060;10.616;2023-03-25T05:40:30;96102.59;;;6.05;100.00
57628;BME280;43451;49.060;10.616;2023-03-25T05:42:57;96096.41;;;6.05;100.00
57628;BME280;43451;49.060;10.616;2023-03-25T05:45:22;96114.19;;;6.13;100.00
57628;BME280;43451;49.060;10.616;2023-03-25T05:47:47;96117.94;;;5.94;100.00
57628;BME280;43451;49.060;10.616;2023-03-25T05:50:13;96122.03;;;5.77;100.00
57628;BME280;43451;49.060;10.616;2023-03-25T05:52:39;96117.72;;;5.69;100.00
57628;BME280;43451;49.060;10.616;2023-03-25T05:55:05;96117.03;;;5.79;100.00
57628;BME280;43451;49.060;10.616;2023-03-25T05:57:31;96134.69;;;5.73;100.00
57628;BME280;43451;49.060;10.616;2023-03-25T05:59:56;96127.00;;;5.72;100.00
57628;BME280;43451;49.060;10.616;2023-03-25T06:02:21;96144.25;;;5.64;100.00
57628;BME280;43451;49.060;10.616;2023-03-25T06:04:47;96151.59;;;5.67;100.00
57628;BME280;43451;49.060;10.616;2023-03-25T06:07:15;96158.47;;;5.61;100.00
57628;BME280;43451;49.060;10.616;2023-03-25T06:09:44;96151.59;;;5.67;100.00
57628;BME280;43451;49.060;10.616;2023-03-25T06:12:17;96153.09;;;5.64;100.00
57628;BME280;43451;49.060;10.616;2023-03-25T06:14:44;96153.69;;;5.91;100.00
57628;BME280;43451;49.060;10.616;2023-03-25T06:17:19;96142.19;;;5.94;100.00
57628;BME280;43451;49.060;10.616;2023-03-25T06:19:48;96139.56;;;6.09;100.00
57628;BME280;43451;49.060;10.616;2023-03-25T06:22:14;96135.78;;;6.17;100.00
57628;BME280;43451;49.060;10.616;2023-03-25T06:24:39;96144.34;;;6.33;100.00
57628;BME280;43451;49.060;10.616;2023-03-25T06:27:15;96139.34;;;6.32;100.00
57628;BME280;43451;49.060;10.616;2023-03-25T06:29:41;96137.72;;;6.20;100.00
57628;BME280;43451;49.060;10.616;2023-03-25T06:32:07;96142.69;;;6.14;100.00
57628;BME280;43451;49.060;10.616;2023-03-25T06:34:33;96124.28;;;6.27;100.00
57628;BME280;43451;49.060;10.616;2023-03-25T06:36:59;96111.22;;;6.36;100.00
57628;BME280;43451;49.060;10.616;2023-03-25T06:39:25;96122.41;;;6.38;100.00
57628;BME280;43451;49.060;10.616;2023-03-25T06:41:51;96129.00;;;6.44;100.00
57628;BME280;43451;49.060;10.616;2023-03-25T06:44:16;96138.31;;;6.61;100.00
57628;BME280;43451;49.060;10.616;2023-03-25T06:46:41;96129.88;;;6.66;100.00
57628;BME280;43451;49.060;10.616;2023-03-25T06:49:07;96134.34;;;6.37;100.00
57628;BME280;43451;49.060;10.616;2023-03-25T06:51:32;96151.38;;;6.56;100.00
57628;BME280;43451;49.060;10.616;2023-03-25T06:53:58;96145.63;;;6.54;100.00
57628;BME280;43451;49.060;10.616;2023-03-25T06:56:23;96149.84;;;6.55;100.00
57628;BME280;43451;49.060;10.616;2023-03-25T06:58:49;96146.84;;;6.74;100.00
57628;BME280;43451;49.060;10.616;2023-03-25T07:01:14;96154.19;;;6.73;100.00
57628;BME280;43451;49.060;10.616;2023-03-25T07:03:39;96152.22;;;6.67;100.00
57628;BME280;43451;49.060;10.616;2023-03-25T07:06:05;96159.50;;;6.63;100.00
57628;BME280;43451;49.060;10.616;2023-03-25T07:08:31;96155.72;;;6.78;100.00
57628;BME280;43451;49.060;10.616;2023-03-25T07:11:00;96146.09;;;6.77;100.00
57628;BME280;43451;49.060;10.616;2023-03-25T07:13:26;96146.09;;;6.81;100.00
57628;BME280;43451;49.060;10.616;2023-03-25T07:15:53;96159.25;;;6.93;100.00
57628;BME280;43451;49.060;10.616;2023-03-25T07:18:18;96165.44;;;7.01;100.00
57628;BME280;43451;49.060;10.616;2023-03-25T07:20:44;96146.16;;;6.98;100.00
57628;BME280;43451;49.060;10.616;2023-03-25T07:23:09;96158.91;;;7.09;100.00
57628;BME280;43451;49.060;10.616;2023-03-25T07:25:35;96155.09;;;7.17;100.00
57628;BME280;43451;49.060;10.616;2023-03-25T07:28:01;96157.78;;;7.24;100.00
57628;BME280;43451;49.060;10.616;2023-03-25T07:30:26;96147.00;;;7.31;100.00
57628;BME280;43451;49.060;10.616;2023-03-25T07:32:51;96161.66;;;7.30;100.00
57628;BME280;43451;49.060;10.616;2023-03-25T07:35:16;96161.97;;;6.96;100.00
57628;BME280;43451;49.060;10.616;2023-03-25T07:37:42;96163.91;;;7.03;100.00
57628;BME280;43451;49.060;10.616;2023-03-25T07:40:07;96157.03;;;7.20;100.00
57628;BME280;43451;49.060;10.616;2023-03-25T07:42:34;96160.44;;;7.06;100.00
57628;BME280;43451;49.060;10.616;2023-03-25T07:45:00;96163.91;;;7.07;100.00
57628;BME280;43451;49.060;10.616;2023-03-25T07:47:25;96164.38;;;7.37;100.00
57628;BME280;43451;49.060;10.616;2023-03-25T07:49:50;96161.66;;;7.27;100.00
57628;BME280;43451;49.060;10.616;2023-03-25T07:52:16;96178.66;;;7.34;100.00
57628;BME280;43451;49.060;10.616;2023-03-25T07:54:41;96178.97;;;7.08;100.00
57628;BME280;43451;49.060;10.616;2023-03-25T07:57:06;96174.75;;;7.14;100.00
57628;BME280;43451;49.060;10.616;2023-03-25T07:59:32;96168.59;;;7.24;100.00
57628;BME280;43451;49.060;10.616;2023-03-25T08:01:57;96177.06;;;7.26;100.00
57628;BME280;43451;49.060;10.616;2023-03-25T08:04:22;96177.13;;;7.48;100.00
57628;BME280;43451;49.060;10.616;2023-03-25T08:06:48;96163.66;;;7.87;100.00
57628;BME280;43451;49.060;10.616;2023-03-25T08:09:13;96167.09;;;8.05;100.00
57628;BME280;43451;49.060;10.616;2023-03-25T08:11:38;96173.66;;;8.19;100.00
57628;BME280;43451;49.060;10.616;2023-03-25T08:14:04;96171.69;;;8.30;100.00
57628;BME280;43451;49.060;10.616;2023-03-25T08:16:29;96153.94;;;8.25;100.00
57628;BME280;43451;49.060;10.616;2023-03-25T08:18:54;96157.41;;;8.11;100.00
57628;BME280;43451;49.060;10.616;2023-03-25T08:21:20;96165.53;;;8.22;100.00
57628;BME280;43451;49.060;10.616;2023-03-25T08:23:53;96155.88;;;8.25;100.00
57628;BME280;43451;49.060;10.616;2023-03-25T08:26:25;96164.72;;;8.54;100.00
57628;BME280;43451;49.060;10.616;2023-03-25T08:28:51;96153.94;;;8.25;100.00
57628;BME280;43451;49.060;10.616;2023-03-25T08:31:18;96153.09;;;8.50;100.00
57628;BME280;43451;49.060;10.616;2023-03-25T08:33:44;96163.16;;;8.53;97.95
57628;BME280;43451;49.060;10.616;2023-03-25T08:36:09;96159.34;;;8.11;99.15
57628;BME280;43451;49.060;10.616;2023-03-25T08:38:38;96152.44;;;7.81;100.00
57628;BME280;43451;49.060;10.616;2023-03-25T08:41:03;96153.56;;;8.02;100.00
57628;BME280;43451;49.060;10.616;2023-03-25T08:43:29;96141.16;;;8.33;100.00
57628;BME280;43451;49.060;10.616;2023-03-25T08:45:54;96153.88;;;8.47;100.00
57628;BME280;43451;49.060;10.616;2023-03-25T08:48:19;96153.13;;;8.46;100.00
57628;BME280;43451;49.060;10.616;2023-03-25T08:50:46;96141.53;;;8.46;100.00
57628;BME280;43451;49.060;10.616;2023-03-25T08:53:12;96145.78;;;8.43;99.55
57628;BME280;43451;49.060;10.616;2023-03-25T08:55:37;96133.38;;;8.49;94.70
57628;BME280;43451;49.060;10.616;2023-03-25T08:58:03;96157.03;;;8.20;100.00
57628;BME280;43451;49.060;10.616;2023-03-25T09:00:30;96137.75;;;7.97;99.41
57628;BME280;43451;49.060;10.616;2023-03-25T09:02:56;96139.25;;;8.19;100.00
57628;BME280;43451;49.060;10.616;2023-03-25T09:05:23;96154.25;;;8.63;100.00
57628;BME280;43451;49.060;10.616;2023-03-25T09:07:48;96151.53;;;8.67;98.11
57628;BME280;43451;49.060;10.616;2023-03-25T09:10:13;96142.16;;;8.89;100.00
57628;BME280;43451;49.060;10.616;2023-03-25T09:12:39;96152.31;;;8.60;99.63
57628;BME280;43451;49.060;10.616;2023-03-25T09:15:05;96146.19;;;8.42;97.98
57628;BME280;43451;49.060;10.616;2023-03-25T09:17:30;96138.03;;;8.49;99.19
57628;BME280;43451;49.060;10.616;2023-03-25T09:19:56;96143.78;;;8.72;100.00
57628;BME280;43451;49.060;10.616;2023-03-25T09:22:21;96134.47;;;8.73;97.97
57628;BME280;43451;49.060;10.616;2023-03-25T09:24:46;96129.78;;;8.88;95.15
57628;BME280;43451;49.060;10.616;2023-03-25T09:27:12;96135.22;;;8.77;95.08
57628;BME280;43451;49.060;10.616;2023-03-25T09:29:37;96115.47;;;8.80;99.24
57628;BME280;43451;49.060;10.616;2023-03-25T09:32:02;96138.53;;;9.17;93.97
57628;BME280;43451;49.060;10.616;2023-03-25T09:34:28;96131.13;;;9.21;92.14
57628;BME280;43451;49.060;10.616;2023-03-25T09:36:54;96116.28;;;9.40;92.08
57628;BME280;43451;49.060;10.616;2023-03-25T09:39:20;96127.09;;;9.44;89.86
57628;BME280;43451;49.060;10.616;2023-03-25T09:41:53;96129.50;;;9.31;89.81
57628;BME280;43451;49.060;10.616;2023-03-25T09:44:36;96129.94;;;9.29;88.78
57628;BME280;43451;49.060;10.616;2023-03-25T09:47:03;96114.78;;;9.36;85.13
57628;BME280;43451;49.060;10.616;2023-03-25T09:49:39;96111.78;;;9.19;91.94
57628;BME280;43451;49.060;10.616;2023-03-25T09:52:06;96126.50;;;9.18;94.82
57628;BME280;43451;49.060;10.616;2023-03-25T09:54:32;96123.34;;;9.30;96.90
57628;BME280;43451;49.060;10.616;2023-03-25T09:57:01;96118.47;;;9.04;94.59
57628;BME280;43451;49.060;10.616;2023-03-25T09:59:47;96101.00;;;9.09;89.97
57628;BME280;43451;49.060;10.616;2023-03-25T10:20:34;96118.97;;;8.77;93.48
57628;BME280;43451;49.060;10.616;2023-03-25T10:22:45;96105.09;;;8.65;91.03
57628;BME280;43451;49.060;10.616;2023-03-25T10:25:17;96118.34;;;8.41;95.69
57628;BME280;43451;49.060;10.616;2023-03-25T10:27:45;96138.03;;;8.52;95.74
57628;BME280;43451;49.060;10.616;2023-03-25T10:30:18;96144.25;;;8.31;100.00
57628;BME280;43451;49.060;10.616;2023-03-25T10:32:47;96128.06;;;8.10;100.00
57628;BME280;43451;49.060;10.616;2023-03-25T10:35:16;96143.53;;;7.99;100.00
57628;BME280;43451;49.060;10.616;2023-03-25T10:37:43;96126.53;;;8.09;100.00
57628;BME280;43451;49.060;10.616;2023-03-25T10:40:13;96140.72;;;8.56;100.00
57628;BME280;43451;49.060;10.616;2023-03-25T10:42:50;96142.88;;;8.97;100.00
57628;BME280;43451;49.060;10.616;2023-03-25T10:45:21;96127.25;;;9.22;100.00
57628;BME280;43451;49.060;10.616;2023-03-25T10:47:47;96135.81;;;9.17;100.00
57628;BME280;43451;49.060;10.616;2023-03-25T10:50:14;96128.09;;;9.12;100.00
57628;BME280;43451;49.060;10.616;2023-03-25T10:52:40;96134.25;;;9.16;100.00
57628;BME280;43451;49.060;10.616;2023-03-25T10:55:07;96125.63;;;9.36;100.00
57628;BME280;43451;49.060;10.616;2023-03-25T10:57:41;96138.00;;;9.37;100.00
57628;BME280;43451;49.060;10.616;2023-03-25T11:00:08;96111.53;;;9.55;100.00
57628;BME280;43451;49.060;10.616;2023-03-25T11:02:44;96107.81;;;9.35;100.00
57628;BME280;43451;49.060;10.616;2023-03-25T11:05:10;96118.44;;;9.63;100.00
57628;BME280;43451;49.060;10.616;2023-03-25T11:07:39;96113.78;;;9.67;99.43
57628;BME280;43451;49.060;10.616;2023-03-25T11:12:38;96104.28;;;9.86;100.00
57628;BME280;43451;49.060;10.616;2023-03-25T11:15:04;96101.56;;;9.86;97.13
57628;BME280;43451;49.060;10.616;2023-03-25T11:17:30;96100.50;;;9.76;96.92
57628;BME280;43451;49.060;10.616;2023-03-25T11:20:04;96096.59;;;9.33;100.00
57628;BME280;43451;49.060;10.616;2023-03-25T11:22:35;96099.63;;;9.45;100.00
57628;BME280;43451;49.060;10.616;2023-03-25T11:27:54;96096.31;;;8.35;100.00
57628;BME280;43451;49.060;10.616;2023-03-25T11:30:21;96110.34;;;7.59;100.00
57628;BME280;43451;49.060;10.616;2023-03-25T11:32:57;96107.59;;;7.09;100.00
57628;BME280;43451;49.060;10.616;2023-03-25T11:35:27;96112.19;;;6.90;100.00
57628;BME280;43451;49.060;10.616;2023-03-25T11:37:55;96105.28;;;7.14;100.00
57628;BME280;43451;49.060;10.616;2023-03-25T11:40:21;96101.44;;;7.19;100.00
57628;BME280;43451;49.060;10.616;2023-03-25T11:42:51;96106.06;;;7.22;100.00
57628;BME280;43451;49.060;10.616;2023-03-25T11:45:24;96099.91;;;7.21;100.00
57628;BME280;43451;49.060;10.616;2023-03-25T11:47:50;96098.34;;;7.31;100.00
57628;BME280;43451;49.060;10.616;2023-03-25T11:50:26;96101.84;;;7.35;100.00
57628;BME280;43451;49.060;10.616;2023-03-25T11:52:52;96113.81;;;7.70;100.00
57628;BME280;43451;49.060;10.616;2023-03-25T11:55:22;96106.84;;;7.69;100.00
57628;BME280;43451;49.060;10.616;2023-03-25T11:57:48;96109.19;;;7.56;100.00
57628;BME280;43451;49.060;10.616;2023-03-25T12:03:00;96097.97;;;7.68;100.00
57628;BME280;43451;49.060;10.616;2023-03-25T12:05:26;96105.31;;;7.79;100.00
57628;BME280;43451;49.060;10.616;2023-03-25T12:07:52;96091.41;;;7.34;100.00
57628;BME280;43451;49.060;10.616;2023-03-25T12:12:59;96108.41;;;7.66;100.00
57628;BME280;43451;49.060;10.616;2023-03-25T12:20:27;96092.97;;;7.56;100.00
57628;BME280;43451;49.060;10.616;2023-03-25T12:23:16;96081.34;;;7.88;100.00
57628;BME280;43451;49.060;10.616;2023-03-25T12:33:29;96074.28;;;8.41;100.00
57628;BME280;43451;49.060;10.616;2023-03-25T12:38:36;96053.13;;;8.88;100.00
57628;BME280;43451;49.060;10.616;2023-03-25T12:41:19;96069.06;;;8.82;100.00
57628;BME280;43451;49.060;10.616;2023-03-25T13:07:17;96028.53;;;10.06;100.00
57628;BME280;43451;49.060;10.616;2023-03-25T13:10:02;96025.00;;;9.71;100.00
57628;BME280;43451;49.060;10.616;2023-03-25T13:12:33;96031.22;;;9.68;100.00
57628;BME280;43451;49.060;10.616;2023-03-25T13:15:21;96002.72;;;10.25;100.00
57628;BME280;43451;49.060;10.616;2023-03-25T13:21:03;96019.59;;;10.40;100.00
57628;BME280;43451;49.060;10.616;2023-03-25T13:23:30;96007.91;;;10.74;100.00
57628;BME280;43451;49.060;10.616;2023-03-25T13:31:03;95993.66;;;10.93;100.00
57628;BME280;43451;49.060;10.616;2023-03-25T13:33:30;95996.28;;;11.24;100.00
57628;BME280;43451;49.060;10.616;2023-03-25T13:38:28;96008.19;;;11.33;94.95
57628;BME280;43451;49.060;10.616;2023-03-25T13:41:10;95982.66;;;11.00;92.22
57628;BME280;43451;49.060;10.616;2023-03-25T13:48:41;95995.97;;;10.37;94.49
57628;BME280;43451;49.060;10.616;2023-03-25T13:51:11;96000.22;;;10.68;91.39
57628;BME280;43451;49.060;10.616;2023-03-25T13:58:34;96029.97;;;9.76;91.81
57628;BME280;43451;49.060;10.616;2023-03-25T14:01:37;96103.63;;;9.26;93.68
57628;BME280;43451;49.060;10.616;2023-03-25T14:11:47;96047.03;;;7.17;100.00
57628;BME280;43451;49.060;10.616;2023-03-25T14:14:14;96035.78;;;7.72;100.00
57628;BME280;43451;49.060;10.616;2023-03-25T14:16:45;96039.91;;;8.23;100.00
57628;BME280;43451;49.060;10.616;2023-03-25T14:19:12;96036.19;;;8.76;100.00
57628;BME280;43451;49.060;10.616;2023-03-25T14:26:29;96015.56;;;9.42;100.00
57628;BME280;43451;49.060;10.616;2023-03-25T14:28:56;96013.41;;;9.22;100.00
57628;BME280;43451;49.060;10.616;2023-03-25T14:31:29;96011.94;;;9.14;100.00
57628;BME280;43451;49.060;10.616;2023-03-25T14:36:30;96006.66;;;8.96;100.00
57628;BME280;43451;49.060;10.616;2023-03-25T14:44:36;96021.09;;;9.72;95.45
57628;BME280;43451;49.060;10.616;2023-03-25T14:52:14;95997.91;;;10.02;87.11
57628;BME280;43451;49.060;10.616;2023-03-25T14:54:42;96010.44;;;9.92;86.82
57628;BME280;43451;49.060;10.616;2023-03-25T14:57:12;96010.25;;;10.10;88.86
57628;BME280;43451;49.060;10.616;2023-03-25T14:59:41;96012.69;;;10.35;88.79
57628;BME280;43451;49.060;10.616;2023-03-25T15:02:09;96010.38;;;9.99;88.47
57628;BME280;43451;49.060;10.616;2023-03-25T15:04:38;96015.94;;;9.85;85.82
57628;BME280;43451;49.060;10.616;2023-03-25T15:07:07;96013.38;;;10.05;87.61
57628;BME280;43451;49.060;10.616;2023-03-25T15:09:38;96023.06;;;10.44;90.46
57628;BME280;43451;49.060;10.616;2023-03-25T15:12:10;96012.78;;;10.28;82.83
57628;BME280;43451;49.060;10.616;2023-03-25T15:17:07;96009.31;;;10.28;82.55
57628;BME280;43451;49.060;10.616;2023-03-25T15:22:19;96017.53;;;10.51;80.53
57628;BME280;43451;49.060;10.616;2023-03-25T15:24:52;96032.34;;;10.47;80.96
57628;BME280;43451;49.060;10.616;2023-03-25T15:27:28;96021.16;;;10.41;78.21